sensor_id;sensor_type;location;lat;lon;timestamp;temperature;humidity
27823;DHT22;29019;47.630;8.262;2022-12-08T00:02:33;17.20;41.20
27823;DHT22;29019;47.630;8.262;2022-12-08T00:06:35;17.20;41.20
27823;DHT22;29019;47.630;8.262;2022-12-08T00:10:54;17.20;41.20
27823;DHT22;29019;47.630;8.262;2022-12-08T00:14:55;17.10;41.20
27823;DHT22;29019;47.630;8.262;2022-12-08T00:18:55;17.20;41.20
27823;DHT22;29019;47.630;8.262;2022-12-08T00:22:55;17.20;41.10
27823;DHT22;29019;47.630;8.262;2022-12-08T00:26:56;17.10;41.20
27823;DHT22;29019;47.630;8.262;2022-12-08T00:30:56;17.10;41.10
27823;DHT22;29019;47.630;8.262;2022-12-08T00:34:57;17.10;41.20
27823;DHT22;29019;47.630;8.262;2022-12-08T00:38:57;17.20;41.20
27823;DHT22;29019;47.630;8.262;2022-12-08T00:42:58;17.20;41.10
27823;DHT22;29019;47.630;8.262;2022-12-08T00:46:58;17.10;41.10
27823;DHT22;29019;47.630;8.262;2022-12-08T00:50:59;17.10;41.20
27823;DHT22;29019;47.630;8.262;2022-12-08T00:54:59;17.10;41.20
27823;DHT22;29019;47.630;8.262;2022-12-08T00:59:00;17.10;41.10
27823;DHT22;29019;47.630;8.262;2022-12-08T01:03:02;17.10;41.20
27823;DHT22;29019;47.630;8.262;2022-12-08T01:07:02;17.10;41.20
27823;DHT22;29019;47.630;8.262;2022-12-08T01:11:03;17.10;41.20
27823;DHT22;29019;47.630;8.262;2022-12-08T01:15:04;17.10;41.10
27823;DHT22;29019;47.630;8.262;2022-12-08T01:19:04;17.10;41.10
27823;DHT22;29019;47.630;8.262;2022-12-08T01:23:05;17.10;41.10
27823;DHT22;29019;47.630;8.262;2022-12-08T01:27:05;17.10;41.10
27823;DHT22;29019;47.630;8.262;2022-12-08T01:31:13;17.10;41.10
27823;DHT22;29019;47.630;8.262;2022-12-08T01:35:14;17.10;41.10
27823;DHT22;29019;47.630;8.262;2022-12-08T01:39:15;17.10;41.10
27823;DHT22;29019;47.630;8.262;2022-12-08T01:43:17;17.10;41.20
27823;DHT22;29019;47.630;8.262;2022-12-08T01:47:18;17.00;41.10
27823;DHT22;29019;47.630;8.262;2022-12-08T01:51:19;17.10;41.20
27823;DHT22;29019;47.630;8.262;2022-12-08T01:55:22;17.10;41.20
27823;DHT22;29019;47.630;8.262;2022-12-08T01:59:23;17.10;41.10
27823;DHT22;29019;47.630;8.262;2022-12-08T02:03:28;17.00;41.10
27823;DHT22;29019;47.630;8.262;2022-12-08T02:07:30;17.00;41.10
27823;DHT22;29019;47.630;8.262;2022-12-08T02:11:30;17.00;41.10
27823;DHT22;29019;47.630;8.262;2022-12-08T02:15:36;17.10;41.10
27823;DHT22;29019;47.630;8.262;2022-12-08T02:32:22;17.00;41.10
27823;DHT22;29019;47.630;8.262;2022-12-08T02:36:30;17.00;41.00
27823;DHT22;29019;47.630;8.262;2022-12-08T02:44:38;17.00;41.10
27823;DHT22;29019;47.630;8.262;2022-12-08T02:48:40;17.00;41.10
27823;DHT22;29019;47.630;8.262;2022-12-08T02:52:42;17.00;41.10
27823;DHT22;29019;47.630;8.262;2022-12-08T03:09:45;17.00;41.00
27823;DHT22;29019;47.630;8.262;2022-12-08T03:13:51;17.00;41.00
27823;DHT22;29019;47.630;8.262;2022-12-08T03:17:53;16.90;40.90
27823;DHT22;29019;47.630;8.262;2022-12-08T03:21:56;17.00;41.00
27823;DHT22;29019;47.630;8.262;2022-12-08T03:26:10;17.00;41.00
27823;DHT22;29019;47.630;8.262;2022-12-08T03:30:12;17.00;41.00
27823;DHT22;29019;47.630;8.262;2022-12-08T03:34:12;16.90;40.90
27823;DHT22;29019;47.630;8.262;2022-12-08T03:38:14;16.90;40.90
27823;DHT22;29019;47.630;8.262;2022-12-08T03:42:15;16.90;40.90
27823;DHT22;29019;47.630;8.262;2022-12-08T03:46:15;16.90;41.00
27823;DHT22;29019;47.630;8.262;2022-12-08T03:50:16;16.90;40.90
27823;DHT22;29019;47.630;8.262;2022-12-08T03:54:16;16.90;40.90
27823;DHT22;29019;47.630;8.262;2022-12-08T03:58:17;16.90;40.90
27823;DHT22;29019;47.630;8.262;2022-12-08T04:02:17;16.90;40.90
27823;DHT22;29019;47.630;8.262;2022-12-08T04:06:18;17.00;40.90
27823;DHT22;29019;47.630;8.262;2022-12-08T04:10:19;16.90;40.90
27823;DHT22;29019;47.630;8.262;2022-12-08T04:14:19;16.90;40.90
27823;DHT22;29019;47.630;8.262;2022-12-08T04:18:20;16.90;40.90
27823;DHT22;29019;47.630;8.262;2022-12-08T04:22:20;16.90;40.90
27823;DHT22;29019;47.630;8.262;2022-12-08T04:26:20;16.90;40.90
27823;DHT22;29019;47.630;8.262;2022-12-08T04:30:21;16.90;40.80
27823;DHT22;29019;47.630;8.262;2022-12-08T04:34:21;16.90;40.80
27823;DHT22;29019;47.630;8.262;2022-12-08T04:38:22;17.00;40.80
27823;DHT22;29019;47.630;8.262;2022-12-08T04:42:23;17.00;40.80
27823;DHT22;29019;47.630;8.262;2022-12-08T04:46:23;17.00;40.80
27823;DHT22;29019;47.630;8.262;2022-12-08T04:50:24;17.00;40.70
27823;DHT22;29019;47.630;8.262;2022-12-08T04:54:24;17.00;40.70
27823;DHT22;29019;47.630;8.262;2022-12-08T04:58:26;17.00;40.70
27823;DHT22;29019;47.630;8.262;2022-12-08T05:02:26;17.00;40.60
27823;DHT22;29019;47.630;8.262;2022-12-08T05:06:27;17.00;40.60
27823;DHT22;29019;47.630;8.262;2022-12-08T05:10:27;17.00;40.70
27823;DHT22;29019;47.630;8.262;2022-12-08T05:14:28;17.00;40.70
27823;DHT22;29019;47.630;8.262;2022-12-08T05:18:28;17.00;40.70
27823;DHT22;29019;47.630;8.262;2022-12-08T05:22:28;17.00;40.70
27823;DHT22;29019;47.630;8.262;2022-12-08T05:26:30;17.00;40.70
27823;DHT22;29019;47.630;8.262;2022-12-08T05:30:30;17.00;40.70
27823;DHT22;29019;47.630;8.262;2022-12-08T05:34:30;17.00;40.70
27823;DHT22;29019;47.630;8.262;2022-12-08T05:38:31;16.90;40.70
27823;DHT22;29019;47.630;8.262;2022-12-08T05:42:31;16.90;40.70
27823;DHT22;29019;47.630;8.262;2022-12-08T05:46:32;16.90;40.70
27823;DHT22;29019;47.630;8.262;2022-12-08T05:50:32;16.90;40.80
27823;DHT22;29019;47.630;8.262;2022-12-08T05:54:33;16.80;40.80
27823;DHT22;29019;47.630;8.262;2022-12-08T05:58:33;16.80;40.80
27823;DHT22;29019;47.630;8.262;2022-12-08T06:02:34;16.80;40.80
27823;DHT22;29019;47.630;8.262;2022-12-08T06:06:34;16.80;40.80
27823;DHT22;29019;47.630;8.262;2022-12-08T06:10:39;16.80;40.80
27823;DHT22;29019;47.630;8.262;2022-12-08T06:14:40;16.80;40.80
27823;DHT22;29019;47.630;8.262;2022-12-08T06:18:40;16.80;40.90
27823;DHT22;29019;47.630;8.262;2022-12-08T06:22:41;16.80;40.80
27823;DHT22;29019;47.630;8.262;2022-12-08T06:26:41;16.80;40.80
27823;DHT22;29019;47.630;8.262;2022-12-08T06:30:42;16.80;40.90
27823;DHT22;29019;47.630;8.262;2022-12-08T06:34:43;16.70;40.80
27823;DHT22;29019;47.630;8.262;2022-12-08T06:38:43;16.80;40.90
27823;DHT22;29019;47.630;8.262;2022-12-08T06:42:44;16.80;40.80
27823;DHT22;29019;47.630;8.262;2022-12-08T06:46:45;16.80;40.80
27823;DHT22;29019;47.630;8.262;2022-12-08T06:50:46;16.90;40.70
27823;DHT22;29019;47.630;8.262;2022-12-08T06:54:46;16.90;40.80
27823;DHT22;29019;47.630;8.262;2022-12-08T06:58:47;16.90;40.70
27823;DHT22;29019;47.630;8.262;2022-12-08T07:02:47;16.90;40.60
27823;DHT22;29019;47.630;8.262;2022-12-08T07:06:48;16.90;40.60
27823;DHT22;29019;47.630;8.262;2022-12-08T07:10:48;16.90;40.50
27823;DHT22;29019;47.630;8.262;2022-12-08T07:14:48;16.90;40.50
27823;DHT22;29019;47.630;8.262;2022-12-08T07:18:49;16.90;40.50
27823;DHT22;29019;47.630;8.262;2022-12-08T07:22:50;16.90;40.50
27823;DHT22;29019;47.630;8.262;2022-12-08T07:26:51;16.90;40.60
27823;DHT22;29019;47.630;8.262;2022-12-08T07:30:51;16.90;40.60
27823;DHT22;29019;47.630;8.262;2022-12-08T07:34:51;16.90;40.60
27823;DHT22;29019;47.630;8.262;2022-12-08T07:38:52;16.80;40.60
27823;DHT22;29019;47.630;8.262;2022-12-08T07:42:52;16.80;40.60
27823;DHT22;29019;47.630;8.262;2022-12-08T07:46:53;16.80;40.60
27823;DHT22;29019;47.630;8.262;2022-12-08T07:51:00;16.80;40.70
27823;DHT22;29019;47.630;8.262;2022-12-08T07:55:01;16.80;40.70
27823;DHT22;29019;47.630;8.262;2022-12-08T07:59:01;16.70;40.70
27823;DHT22;29019;47.630;8.262;2022-12-08T08:03:03;16.80;40.70
27823;DHT22;29019;47.630;8.262;2022-12-08T08:07:03;16.80;40.70
27823;DHT22;29019;47.630;8.262;2022-12-08T08:11:07;16.70;40.70
27823;DHT22;29019;47.630;8.262;2022-12-08T08:15:08;16.70;40.80
27823;DHT22;29019;47.630;8.262;2022-12-08T08:19:09;16.70;40.70
27823;DHT22;29019;47.630;8.262;2022-12-08T08:23:09;16.70;40.70
27823;DHT22;29019;47.630;8.262;2022-12-08T08:27:09;16.70;40.70
27823;DHT22;29019;47.630;8.262;2022-12-08T08:31:10;16.70;40.70
27823;DHT22;29019;47.630;8.262;2022-12-08T08:35:12;16.70;40.70
27823;DHT22;29019;47.630;8.262;2022-12-08T08:39:12;16.70;40.60
27823;DHT22;29019;47.630;8.262;2022-12-08T08:43:13;16.70;40.70
27823;DHT22;29019;47.630;8.262;2022-12-08T08:47:28;16.60;40.60
27823;DHT22;29019;47.630;8.262;2022-12-08T08:51:28;16.70;40.70
27823;DHT22;29019;47.630;8.262;2022-12-08T08:55:28;16.70;40.70
27823;DHT22;29019;47.630;8.262;2022-12-08T08:59:29;16.70;40.70
27823;DHT22;29019;47.630;8.262;2022-12-08T09:03:29;16.70;40.70
27823;DHT22;29019;47.630;8.262;2022-12-08T09:07:30;16.70;40.70
27823;DHT22;29019;47.630;8.262;2022-12-08T09:11:31;16.70;40.70
27823;DHT22;29019;47.630;8.262;2022-12-08T09:15:32;16.70;40.70
27823;DHT22;29019;47.630;8.262;2022-12-08T09:19:32;16.70;40.70
27823;DHT22;29019;47.630;8.262;2022-12-08T09:23:33;16.70;40.70
27823;DHT22;29019;47.630;8.262;2022-12-08T09:27:33;16.70;40.70
27823;DHT22;29019;47.630;8.262;2022-12-08T09:31:34;16.70;40.70
27823;DHT22;29019;47.630;8.262;2022-12-08T09:35:35;16.70;40.70
27823;DHT22;29019;47.630;8.262;2022-12-08T09:39:35;16.70;40.70
27823;DHT22;29019;47.630;8.262;2022-12-08T09:43:49;16.70;40.80
27823;DHT22;29019;47.630;8.262;2022-12-08T09:47:59;16.70;40.80
27823;DHT22;29019;47.630;8.262;2022-12-08T09:52:02;16.70;40.80
27823;DHT22;29019;47.630;8.262;2022-12-08T09:56:07;16.80;40.70
27823;DHT22;29019;47.630;8.262;2022-12-08T10:00:10;16.80;40.70
27823;DHT22;29019;47.630;8.262;2022-12-08T10:08:24;16.90;40.60
27823;DHT22;29019;47.630;8.262;2022-12-08T10:12:48;16.90;40.50
27823;DHT22;29019;47.630;8.262;2022-12-08T10:16:51;16.90;40.50
27823;DHT22;29019;47.630;8.262;2022-12-08T10:20:55;17.00;40.50
27823;DHT22;29019;47.630;8.262;2022-12-08T10:24:59;17.00;40.40
27823;DHT22;29019;47.630;8.262;2022-12-08T10:29:00;16.90;40.30
27823;DHT22;29019;47.630;8.262;2022-12-08T10:33:02;17.00;40.50
27823;DHT22;29019;47.630;8.262;2022-12-08T10:37:03;16.90;40.40
27823;DHT22;29019;47.630;8.262;2022-12-08T10:49:10;16.90;41.10
27823;DHT22;29019;47.630;8.262;2022-12-08T10:53:12;16.90;40.60
27823;DHT22;29019;47.630;8.262;2022-12-08T10:57:18;16.90;40.60
27823;DHT22;29019;47.630;8.262;2022-12-08T11:01:20;16.90;40.60
27823;DHT22;29019;47.630;8.262;2022-12-08T11:05:25;16.90;40.60
27823;DHT22;29019;47.630;8.262;2022-12-08T11:09:36;16.90;40.50
27823;DHT22;29019;47.630;8.262;2022-12-08T11:13:39;16.90;40.60
27823;DHT22;29019;47.630;8.262;2022-12-08T11:17:40;16.80;40.50
27823;DHT22;29019;47.630;8.262;2022-12-08T11:21:43;16.80;40.50
27823;DHT22;29019;47.630;8.262;2022-12-08T11:25:43;16.80;40.50
27823;DHT22;29019;47.630;8.262;2022-12-08T11:29:44;16.80;40.50
27823;DHT22;29019;47.630;8.262;2022-12-08T11:33:44;16.80;40.50
27823;DHT22;29019;47.630;8.262;2022-12-08T11:37:46;16.80;40.50
27823;DHT22;29019;47.630;8.262;2022-12-08T11:41:46;16.80;40.60
27823;DHT22;29019;47.630;8.262;2022-12-08T11:45:52;16.80;40.60
27823;DHT22;29019;47.630;8.262;2022-12-08T11:50:00;16.90;40.60
27823;DHT22;29019;47.630;8.262;2022-12-08T11:58:17;17.00;40.40
27823;DHT22;29019;47.630;8.262;2022-12-08T12:02:21;17.10;40.40
27823;DHT22;29019;47.630;8.262;2022-12-08T12:06:32;17.10;40.40
27823;DHT22;29019;47.630;8.262;2022-12-08T12:18:54;17.10;40.30
27823;DHT22;29019;47.630;8.262;2022-12-08T12:22:57;17.10;40.20
27823;DHT22;29019;47.630;8.262;2022-12-08T12:27:05;17.10;40.30
27823;DHT22;29019;47.630;8.262;2022-12-08T12:31:07;17.10;40.30
27823;DHT22;29019;47.630;8.262;2022-12-08T12:35:13;17.10;40.30
27823;DHT22;29019;47.630;8.262;2022-12-08T12:39:14;17.10;40.40
27823;DHT22;29019;47.630;8.262;2022-12-08T12:43:26;17.10;40.40
27823;DHT22;29019;47.630;8.262;2022-12-08T12:51:46;17.00;40.30
27823;DHT22;29019;47.630;8.262;2022-12-08T13:03:51;17.00;40.40
27823;DHT22;29019;47.630;8.262;2022-12-08T13:08:04;17.00;40.40
27823;DHT22;29019;47.630;8.262;2022-12-08T13:12:10;17.00;40.40
27823;DHT22;29019;47.630;8.262;2022-12-08T13:20:19;17.00;40.50
27823;DHT22;29019;47.630;8.262;2022-12-08T13:28:24;17.00;40.50
27823;DHT22;29019;47.630;8.262;2022-12-08T13:36:54;16.90;40.40
27823;DHT22;29019;47.630;8.262;2022-12-08T13:40:56;17.00;40.50
27823;DHT22;29019;47.630;8.262;2022-12-08T13:45:01;16.90;40.50
27823;DHT22;29019;47.630;8.262;2022-12-08T13:49:03;17.00;40.50
27823;DHT22;29019;47.630;8.262;2022-12-08T13:53:15;16.90;40.40
27823;DHT22;29019;47.630;8.262;2022-12-08T13:57:34;16.90;40.40
27823;DHT22;29019;47.630;8.262;2022-12-08T14:01:39;16.90;40.40
27823;DHT22;29019;47.630;8.262;2022-12-08T14:05:42;16.90;40.40
27823;DHT22;29019;47.630;8.262;2022-12-08T14:09:42;16.90;40.40
27823;DHT22;29019;47.630;8.262;2022-12-08T14:13:43;16.90;40.50
27823;DHT22;29019;47.630;8.262;2022-12-08T14:17:56;16.90;40.50
27823;DHT22;29019;47.630;8.262;2022-12-08T14:25:57;16.90;40.50
27823;DHT22;29019;47.630;8.262;2022-12-08T14:29:59;16.90;40.50
27823;DHT22;29019;47.630;8.262;2022-12-08T14:34:00;16.90;40.50
27823;DHT22;29019;47.630;8.262;2022-12-08T14:38:01;16.90;40.50
27823;DHT22;29019;47.630;8.262;2022-12-08T14:42:02;16.90;40.50
27823;DHT22;29019;47.630;8.262;2022-12-08T14:46:17;16.90;40.50
27823;DHT22;29019;47.630;8.262;2022-12-08T14:54:34;16.90;40.50
27823;DHT22;29019;47.630;8.262;2022-12-08T14:58:35;16.90;40.50
27823;DHT22;29019;47.630;8.262;2022-12-08T15:02:38;16.80;40.40
27823;DHT22;29019;47.630;8.262;2022-12-08T15:15:14;16.80;40.50
27823;DHT22;29019;47.630;8.262;2022-12-08T15:19:21;16.80;40.50
27823;DHT22;29019;47.630;8.262;2022-12-08T15:23:27;16.80;40.60
27823;DHT22;29019;47.630;8.262;2022-12-08T15:27:28;16.80;40.50
27823;DHT22;29019;47.630;8.262;2022-12-08T15:31:29;16.80;40.60
27823;DHT22;29019;47.630;8.262;2022-12-08T15:35:29;16.80;40.50
27823;DHT22;29019;47.630;8.262;2022-12-08T15:39:36;16.80;40.50
27823;DHT22;29019;47.630;8.262;2022-12-08T15:43:37;16.80;40.50
27823;DHT22;29019;47.630;8.262;2022-12-08T15:47:37;16.80;40.60
27823;DHT22;29019;47.630;8.262;2022-12-08T15:51:38;16.80;40.50
27823;DHT22;29019;47.630;8.262;2022-12-08T15:55:39;16.70;40.50
27823;DHT22;29019;47.630;8.262;2022-12-08T15:59:39;16.70;40.50
27823;DHT22;29019;47.630;8.262;2022-12-08T16:03:40;16.70;40.50
27823;DHT22;29019;47.630;8.262;2022-12-08T16:07:40;16.70;40.50
27823;DHT22;29019;47.630;8.262;2022-12-08T16:11:40;16.70;40.50
27823;DHT22;29019;47.630;8.262;2022-12-08T16:16:00;16.70;40.50
27823;DHT22;29019;47.630;8.262;2022-12-08T16:20:02;16.70;40.50
27823;DHT22;29019;47.630;8.262;2022-12-08T16:24:03;16.70;40.50
27823;DHT22;29019;47.630;8.262;2022-12-08T16:28:03;16.70;40.50
27823;DHT22;29019;47.630;8.262;2022-12-08T16:32:04;16.70;40.50
27823;DHT22;29019;47.630;8.262;2022-12-08T16:36:04;16.70;40.50
27823;DHT22;29019;47.630;8.262;2022-12-08T16:40:05;16.70;40.50
27823;DHT22;29019;47.630;8.262;2022-12-08T16:44:06;16.60;40.50
27823;DHT22;29019;47.630;8.262;2022-12-08T16:48:08;16.70;40.60
27823;DHT22;29019;47.630;8.262;2022-12-08T16:52:12;16.70;40.60
27823;DHT22;29019;47.630;8.262;2022-12-08T16:56:16;16.70;40.50
27823;DHT22;29019;47.630;8.262;2022-12-08T17:00:17;16.80;40.50
27823;DHT22;29019;47.630;8.262;2022-12-08T17:04:18;16.80;40.40
27823;DHT22;29019;47.630;8.262;2022-12-08T17:08:19;16.80;40.40
27823;DHT22;29019;47.630;8.262;2022-12-08T17:12:19;16.80;40.30
27823;DHT22;29019;47.630;8.262;2022-12-08T17:16:20;16.90;40.30
27823;DHT22;29019;47.630;8.262;2022-12-08T17:20:22;16.90;40.20
27823;DHT22;29019;47.630;8.262;2022-12-08T17:24:22;16.90;40.10
27823;DHT22;29019;47.630;8.262;2022-12-08T17:28:24;16.90;40.10
27823;DHT22;29019;47.630;8.262;2022-12-08T17:32:25;16.80;40.10
27823;DHT22;29019;47.630;8.262;2022-12-08T17:36:26;16.80;40.10
27823;DHT22;29019;47.630;8.262;2022-12-08T17:40:26;16.90;40.20
27823;DHT22;29019;47.630;8.262;2022-12-08T17:44:26;16.80;40.10
27823;DHT22;29019;47.630;8.262;2022-12-08T17:48:27;16.80;40.10
27823;DHT22;29019;47.630;8.262;2022-12-08T17:52:28;16.80;40.20
27823;DHT22;29019;47.630;8.262;2022-12-08T17:56:28;16.80;40.20
27823;DHT22;29019;47.630;8.262;2022-12-08T18:00:29;16.80;40.20
27823;DHT22;29019;47.630;8.262;2022-12-08T18:04:30;16.80;40.20
27823;DHT22;29019;47.630;8.262;2022-12-08T18:08:30;16.70;40.20
27823;DHT22;29019;47.630;8.262;2022-12-08T18:12:31;16.70;40.20
27823;DHT22;29019;47.630;8.262;2022-12-08T18:16:31;16.70;40.30
27823;DHT22;29019;47.630;8.262;2022-12-08T18:20:32;16.70;40.20
27823;DHT22;29019;47.630;8.262;2022-12-08T18:24:32;16.70;40.30
27823;DHT22;29019;47.630;8.262;2022-12-08T18:28:33;16.70;40.30
27823;DHT22;29019;47.630;8.262;2022-12-08T18:32:34;16.70;40.30
27823;DHT22;29019;47.630;8.262;2022-12-08T18:36:34;16.60;40.30
27823;DHT22;29019;47.630;8.262;2022-12-08T18:40:34;16.70;40.30
27823;DHT22;29019;47.630;8.262;2022-12-08T18:44:35;16.70;40.30
27823;DHT22;29019;47.630;8.262;2022-12-08T18:48:36;16.70;40.30
27823;DHT22;29019;47.630;8.262;2022-12-08T18:52:37;16.80;40.20
27823;DHT22;29019;47.630;8.262;2022-12-08T18:56:37;16.80;40.20
27823;DHT22;29019;47.630;8.262;2022-12-08T19:00:38;16.80;40.20
27823;DHT22;29019;47.630;8.262;2022-12-08T19:04:39;16.80;40.10
27823;DHT22;29019;47.630;8.262;2022-12-08T19:08:39;16.90;40.10
27823;DHT22;29019;47.630;8.262;2022-12-08T19:12:40;16.90;40.00
27823;DHT22;29019;47.630;8.262;2022-12-08T19:16:40;16.90;40.00
27823;DHT22;29019;47.630;8.262;2022-12-08T19:20:41;16.90;39.90
27823;DHT22;29019;47.630;8.262;2022-12-08T19:24:41;16.90;39.90
27823;DHT22;29019;47.630;8.262;2022-12-08T19:28:42;16.90;39.90
27823;DHT22;29019;47.630;8.262;2022-12-08T19:32:42;16.80;39.90
27823;DHT22;29019;47.630;8.262;2022-12-08T19:36:43;16.80;40.00
27823;DHT22;29019;47.630;8.262;2022-12-08T19:40:43;16.80;40.00
27823;DHT22;29019;47.630;8.262;2022-12-08T19:45:14;16.80;40.10
27823;DHT22;29019;47.630;8.262;2022-12-08T19:49:15;16.80;40.10
27823;DHT22;29019;47.630;8.262;2022-12-08T19:53:15;16.80;40.10
27823;DHT22;29019;47.630;8.262;2022-12-08T19:57:16;16.70;40.10
27823;DHT22;29019;47.630;8.262;2022-12-08T20:01:16;16.70;40.20
27823;DHT22;29019;47.630;8.262;2022-12-08T20:05:17;16.70;40.20
27823;DHT22;29019;47.630;8.262;2022-12-08T20:09:18;16.70;40.20
27823;DHT22;29019;47.630;8.262;2022-12-08T20:13:19;16.70;40.20
27823;DHT22;29019;47.630;8.262;2022-12-08T20:17:40;16.70;40.20
27823;DHT22;29019;47.630;8.262;2022-12-08T20:21:41;16.60;40.10
27823;DHT22;29019;47.630;8.262;2022-12-08T20:25:42;16.60;40.10
27823;DHT22;29019;47.630;8.262;2022-12-08T20:29:43;16.60;40.20
27823;DHT22;29019;47.630;8.262;2022-12-08T20:33:44;16.60;40.20
27823;DHT22;29019;47.630;8.262;2022-12-08T20:37:45;16.60;40.20
27823;DHT22;29019;47.630;8.262;2022-12-08T20:41:45;16.70;40.30
27823;DHT22;29019;47.630;8.262;2022-12-08T20:45:46;16.70;40.20
27823;DHT22;29019;47.630;8.262;2022-12-08T20:49:46;16.70;40.20
27823;DHT22;29019;47.630;8.262;2022-12-08T20:53:47;16.80;40.10
27823;DHT22;29019;47.630;8.262;2022-12-08T20:57:47;16.80;40.00
27823;DHT22;29019;47.630;8.262;2022-12-08T21:01:47;16.80;39.90
27823;DHT22;29019;47.630;8.262;2022-12-08T21:05:48;16.80;39.90
27823;DHT22;29019;47.630;8.262;2022-12-08T21:09:49;16.80;39.90
27823;DHT22;29019;47.630;8.262;2022-12-08T21:13:50;16.80;39.80
27823;DHT22;29019;47.630;8.262;2022-12-08T21:17:50;16.80;39.80
27823;DHT22;29019;47.630;8.262;2022-12-08T21:21:50;16.80;39.90
27823;DHT22;29019;47.630;8.262;2022-12-08T21:25:51;16.80;39.90
27823;DHT22;29019;47.630;8.262;2022-12-08T21:29:51;16.80;39.90
27823;DHT22;29019;47.630;8.262;2022-12-08T21:33:52;16.80;39.90
27823;DHT22;29019;47.630;8.262;2022-12-08T21:37:54;16.80;40.00
27823;DHT22;29019;47.630;8.262;2022-12-08T21:41:54;16.70;40.00
27823;DHT22;29019;47.630;8.262;2022-12-08T21:46:14;16.70;40.00
27823;DHT22;29019;47.630;8.262;2022-12-08T21:50:16;16.70;40.10
27823;DHT22;29019;47.630;8.262;2022-12-08T21:54:16;16.60;40.10
27823;DHT22;29019;47.630;8.262;2022-12-08T21:58:17;16.60;40.10
27823;DHT22;29019;47.630;8.262;2022-12-08T22:02:17;16.60;40.20
27823;DHT22;29019;47.630;8.262;2022-12-08T22:06:18;16.60;40.20
27823;DHT22;29019;47.630;8.262;2022-12-08T22:10:18;16.60;40.20
27823;DHT22;29019;47.630;8.262;2022-12-08T22:14:20;16.60;40.20
27823;DHT22;29019;47.630;8.262;2022-12-08T22:18:20;16.60;40.10
27823;DHT22;29019;47.630;8.262;2022-12-08T22:22:20;16.60;40.10
27823;DHT22;29019;47.630;8.262;2022-12-08T22:26:21;16.60;40.10
27823;DHT22;29019;47.630;8.262;2022-12-08T22:30:21;16.60;40.10
27823;DHT22;29019;47.630;8.262;2022-12-08T22:34:22;16.60;40.10
27823;DHT22;29019;47.630;8.262;2022-12-08T22:38:22;16.60;40.00
27823;DHT22;29019;47.630;8.262;2022-12-08T22:42:23;16.60;40.00
27823;DHT22;29019;47.630;8.262;2022-12-08T22:46:25;16.60;40.00
27823;DHT22;29019;47.630;8.262;2022-12-08T22:50:25;16.60;40.00
27823;DHT22;29019;47.630;8.262;2022-12-08T22:54:26;16.60;40.00
27823;DHT22;29019;47.630;8.262;2022-12-08T22:58:27;16.60;40.00
27823;DHT22;29019;47.630;8.262;2022-12-08T23:02:27;16.60;39.90
27823;DHT22;29019;47.630;8.262;2022-12-08T23:06:28;16.60;40.00
27823;DHT22;29019;47.630;8.262;2022-12-08T23:10:29;16.60;39.90
27823;DHT22;29019;47.630;8.262;2022-12-08T23:14:30;16.60;39.90
27823;DHT22;29019;47.630;8.262;2022-12-08T23:18:30;16.60;40.00
27823;DHT22;29019;47.630;8.262;2022-12-08T23:22:31;16.60;40.00
27823;DHT22;29019;47.630;8.262;2022-12-08T23:26:31;16.60;40.00
27823;DHT22;29019;47.630;8.262;2022-12-08T23:30:32;16.60;40.00
27823;DHT22;29019;47.630;8.262;2022-12-08T23:34:33;16.60;40.00
27823;DHT22;29019;47.630;8.262;2022-12-08T23:38:33;16.60;40.00
27823;DHT22;29019;47.630;8.262;2022-12-08T23:42:33;16.60;40.10
27823;DHT22;29019;47.630;8.262;2022-12-08T23:46:34;16.60;40.00
27823;DHT22;29019;47.630;8.262;2022-12-08T23:50:35;16.60;40.00
27823;DHT22;29019;47.630;8.262;2022-12-08T23:54:35;16.60;40.00
27823;DHT22;29019;47.630;8.262;2022-12-08T23:58:36;16.60;40.00
